KSME/SME METAR and TAF weather

Enter ICAO airport designator
Station Type Date Time Source
KSME METAR 2019/05/26 22:55 UTC NOAA

KSME 262255Z AUTO 34010G20KT 5SM -RA SCT055 BKN065 OVC090 21/18 A3010 RMK AO2 LTG DSNT N THRU E P0006


Station Type Date Time Source
KSME Decoded METAR 2019/05/26 22:55 UTC NOAA

Somerset, Somerset-Pulaski County - J.T. Wilson Field Airport, KY, United States (KSME) 37-03-15N 084-36-54W
May 26, 2019 - 06:55 PM EDT / 2019.05.26 2255 UTC
Wind: from the NNW (340 degrees) at 12 MPH (10 KT) gusting to 23 MPH (20 KT):0
Visibility: 5 mile(s):0
Sky conditions: overcast
Weather: light rain; Lightning observed
Precipitation last hour: 0.06 inches
Temperature: 69 F (21 C)
Dew Point: 64 F (18 C)
Relative Humidity: 82%
Pressure (altimeter): 30.1 in. Hg (1019 hPa)
ob: KSME 262255Z AUTO 34010G20KT 5SM -RA SCT055 BKN065 OVC090 21/18 A3010 RMK AO2 LTG DSNT N THRU E P0006
cycle: 23

Station Type Date Time Source
KSME TAF 2019/05/26 23:39 UTC NOAA

TAF
AMD KSME 262237Z 2623/2718 23010G18KT P6SM SCT050
FM262315 28010G25KT 3SM TSRA BKN050CB OVC100
FM270015 00000KT P6SM SCT050 SCT100
FM271000 00000KT 4SM BR SCT040
FM271200 00000KT P6SM SCT045

Example: see airport list